Terminal Aerodrome Forecast
Issued by NWS

Home | Current Version | Previous Version | Text Only | Print | Product List | Glossary On
Versions: 1 2 3 4 5 6 7 8 9 10 11 12 13 14 15 16 17 18 19 20
842
FTUS43 KJKL 250539
TAFSME
TAF
KSME 250539Z 2506/2606 26010KT P6SM -SHRA VCTS OVC045CB
     FM250630 28012KT P6SM VCSH OVC035
     FM251500 27014G24KT P6SM VCSH BKN050
     FM252100 28010KT P6SM BKN060=

USA.gov is the U.S. government's official web portal to all federal, state and local government web resources and services.